createdAt,value
2019-05-09T00:01:23.522Z,12.60
2019-05-09T00:04:03.354Z,12.60
2019-05-09T00:06:33.978Z,12.60
2019-05-09T00:09:06.151Z,12.60
2019-05-09T00:11:37.014Z,12.60
2019-05-09T00:14:07.526Z,12.60
2019-05-09T00:16:37.976Z,12.60
2019-05-09T00:19:08.429Z,12.60
2019-05-09T00:21:43.764Z,12.60
2019-05-09T00:24:14.128Z,12.60
2019-05-09T00:26:44.447Z,12.60
2019-05-09T00:29:16.296Z,12.60
2019-05-09T00:31:48.352Z,12.60
2019-05-09T00:34:33.805Z,12.60
2019-05-09T00:37:04.196Z,12.60
2019-05-09T00:39:34.564Z,12.60
2019-05-09T00:42:05.413Z,12.60
2019-05-09T00:44:37.983Z,12.60
2019-05-09T00:47:13.490Z,12.60
2019-05-09T00:49:44.118Z,12.60
2019-05-09T00:52:14.370Z,12.50
2019-05-09T00:54:44.669Z,12.60
2019-05-09T00:57:16.598Z,12.50
2019-05-09T00:59:49.496Z,12.50
2019-05-09T01:02:19.885Z,12.50
2019-05-09T01:04:50.145Z,12.50
2019-05-09T01:07:20.421Z,12.50
2019-05-09T01:09:50.739Z,12.50
2019-05-09T01:12:20.963Z,12.50
2019-05-09T01:14:53.877Z,12.50
2019-05-09T01:17:27.980Z,12.50
2019-05-09T01:19:59.234Z,12.50
2019-05-09T01:22:29.508Z,12.50
2019-05-09T01:24:59.808Z,12.50
2019-05-09T01:27:30.078Z,12.50
2019-05-09T01:30:00.378Z,12.50
2019-05-09T01:32:48.862Z,12.50
2019-05-09T01:35:19.160Z,12.50
2019-05-09T01:37:49.421Z,12.50
2019-05-09T01:40:19.712Z,12.50
2019-05-09T01:42:49.907Z,12.50
2019-05-09T01:45:20.141Z,12.50
2019-05-09T01:47:50.508Z,12.50
2019-05-09T01:50:20.813Z,12.50
2019-05-09T01:52:53.329Z,12.50
2019-05-09T01:55:25.238Z,12.50
2019-05-09T01:57:55.516Z,12.50
2019-05-09T02:00:25.856Z,12.50
2019-05-09T02:02:56.125Z,12.40
2019-05-09T02:05:26.455Z,12.40
2019-05-09T02:07:57.414Z,12.40
2019-05-09T02:10:27.860Z,12.40
2019-05-09T02:12:58.271Z,12.40
2019-05-09T02:15:48.148Z,12.40
2019-05-09T02:18:36.235Z,12.40
2019-05-09T02:21:06.605Z,12.40
2019-05-09T02:23:36.872Z,12.40
2019-05-09T02:26:07.139Z,12.40
2019-05-09T02:28:37.589Z,12.40
2019-05-09T02:31:07.946Z,12.30
2019-05-09T02:33:38.150Z,12.30
2019-05-09T02:36:09.808Z,12.30
2019-05-09T02:38:40.234Z,12.30
2019-05-09T02:41:10.473Z,12.20
2019-05-09T02:43:40.745Z,12.20
2019-05-09T02:46:21.665Z,12.20
2019-05-09T02:48:51.940Z,12.10
2019-05-09T02:51:22.212Z,12.10
2019-05-09T02:53:52.485Z,12.10
2019-05-09T02:56:22.756Z,12.00
2019-05-09T02:59:03.522Z,12.00
2019-05-09T03:01:39.137Z,12.00
2019-05-09T03:04:09.615Z,11.90
2019-05-09T03:06:40.842Z,11.90
2019-05-09T03:09:11.284Z,11.90
2019-05-09T03:11:41.637Z,11.80
2019-05-09T03:14:11.916Z,11.80
2019-05-09T03:16:42.235Z,11.70
2019-05-09T03:19:12.590Z,11.70
2019-05-09T03:21:44.466Z,11.70
2019-05-09T03:24:18.255Z,11.70
2019-05-09T03:26:49.456Z,11.60
2019-05-09T03:29:39.438Z,11.60
2019-05-09T03:32:09.403Z,11.60
2019-05-09T03:34:39.973Z,11.50
2019-05-09T03:37:10.319Z,11.50
2019-05-09T03:39:40.650Z,11.50
2019-05-09T03:42:11.082Z,11.50
2019-05-09T03:44:41.392Z,11.40
2019-05-09T03:47:17.379Z,11.40
2019-05-09T03:49:49.471Z,11.30
2019-05-09T03:52:20.101Z,11.40
2019-05-09T03:54:50.295Z,11.40
2019-05-09T03:57:22.209Z,11.40
2019-05-09T03:59:52.481Z,11.40
2019-05-09T04:02:22.831Z,11.30
2019-05-09T04:04:53.033Z,11.30
2019-05-09T04:07:23.397Z,11.30
2019-05-09T04:09:53.605Z,11.30
2019-05-09T04:12:23.971Z,11.30
2019-05-09T04:14:54.169Z,11.30
2019-05-09T04:17:28.070Z,11.30
2019-05-09T04:19:58.336Z,11.30
2019-05-09T04:22:28.653Z,11.30
2019-05-09T04:24:59.582Z,11.30
2019-05-09T04:27:31.393Z,11.20
2019-05-09T04:30:01.644Z,11.20
2019-05-09T04:32:32.989Z,11.20
2019-05-09T04:35:03.735Z,11.20
2019-05-09T04:37:34.088Z,11.20
2019-05-09T04:40:08.124Z,11.20
2019-05-09T04:42:42.788Z,11.20
2019-05-09T04:45:10.463Z,11.20
2019-05-09T04:47:43.438Z,11.20
2019-05-09T04:50:15.376Z,11.20
2019-05-09T04:52:44.921Z,11.30
2019-05-09T04:55:18.224Z,11.30
2019-05-09T04:57:48.644Z,11.30
2019-05-09T05:00:21.508Z,11.30
2019-05-09T05:02:53.048Z,11.30
2019-05-09T05:05:23.265Z,11.30
2019-05-09T05:07:54.186Z,11.30
2019-05-09T05:10:24.471Z,11.30
2019-05-09T05:12:54.769Z,11.30
2019-05-09T05:15:27.542Z,11.30
2019-05-09T05:17:58.273Z,11.40
2019-05-09T05:20:30.508Z,11.40
2019-05-09T05:23:02.461Z,11.40
2019-05-09T05:25:32.744Z,11.50
2019-05-09T05:28:03.059Z,11.50
2019-05-09T05:30:37.118Z,11.50
2019-05-09T05:33:08.393Z,11.50
2019-05-09T05:35:40.387Z,11.50
2019-05-09T05:38:10.852Z,11.50
2019-05-09T05:40:45.721Z,11.50
2019-05-09T05:43:13.163Z,11.50
2019-05-09T05:45:45.020Z,11.50
2019-05-09T05:48:17.612Z,11.50
2019-05-09T05:50:48.726Z,11.50
2019-05-09T05:53:19.228Z,11.50
2019-05-09T05:55:52.622Z,11.50
2019-05-09T05:58:22.679Z,11.50
2019-05-09T06:00:54.047Z,11.50
2019-05-09T06:03:24.361Z,11.50
2019-05-09T06:05:54.635Z,11.50
2019-05-09T06:08:24.944Z,11.50
2019-05-09T06:10:57.477Z,11.50
2019-05-09T06:13:27.597Z,11.50
2019-05-09T06:15:58.593Z,11.50
2019-05-09T06:18:29.276Z,11.50
2019-05-09T06:21:00.514Z,11.50
2019-05-09T06:23:30.929Z,11.40
2019-05-09T06:26:01.240Z,11.40
2019-05-09T06:28:31.551Z,11.40
2019-05-09T06:31:09.449Z,11.40
2019-05-09T06:33:46.114Z,11.40
2019-05-09T06:36:12.929Z,11.40
2019-05-09T06:38:43.265Z,11.40
2019-05-09T06:41:13.760Z,11.40
2019-05-09T06:43:52.343Z,11.40
2019-05-09T06:46:30.260Z,11.40
2019-05-09T06:49:20.467Z,11.40
2019-05-09T06:51:33.357Z,11.50
2019-05-09T06:54:03.620Z,11.50
2019-05-09T06:56:33.852Z,11.50
2019-05-09T06:59:04.120Z,11.50
2019-05-09T07:01:42.580Z,11.50
2019-05-09T07:04:14.404Z,11.40
2019-05-09T07:06:52.099Z,11.50
2019-05-09T07:09:30.152Z,11.50
2019-05-09T07:12:00.817Z,11.50
2019-05-09T07:14:41.481Z,11.50
2019-05-09T07:17:09.917Z,11.50
2019-05-09T07:19:43.477Z,11.50
2019-05-09T07:22:18.391Z,11.50
2019-05-09T07:25:10.449Z,11.60
2019-05-09T07:27:39.930Z,11.60
2019-05-09T07:30:17.919Z,11.60
2019-05-09T07:32:49.245Z,11.60
2019-05-09T07:35:19.519Z,11.60
2019-05-09T07:37:49.828Z,11.60
2019-05-09T07:40:20.287Z,11.60
2019-05-09T07:42:50.616Z,11.60
2019-05-09T07:45:20.867Z,11.60
2019-05-09T07:47:51.187Z,11.60
2019-05-09T07:50:21.459Z,11.60
2019-05-09T07:52:51.772Z,11.60
2019-05-09T07:55:22.083Z,11.60
2019-05-09T07:57:55.318Z,11.70
2019-05-09T08:00:35.085Z,11.70
2019-05-09T08:03:08.343Z,11.70
2019-05-09T08:05:38.569Z,11.70
2019-05-09T08:08:12.196Z,11.70
2019-05-09T08:10:42.404Z,11.70
2019-05-09T08:13:13.177Z,11.70
2019-05-09T08:15:44.476Z,11.70
2019-05-09T08:18:14.801Z,11.70
2019-05-09T08:20:44.986Z,11.70
2019-05-09T08:23:15.566Z,11.70
2019-05-09T08:25:48.519Z,11.70
2019-05-09T08:28:20.156Z,11.70
2019-05-09T08:30:51.114Z,11.80
2019-05-09T08:33:21.441Z,11.80
2019-05-09T08:35:52.823Z,11.80
2019-05-09T08:38:23.702Z,11.80
2019-05-09T08:40:55.536Z,11.90
2019-05-09T08:43:28.311Z,11.90
2019-05-09T08:45:58.428Z,11.80
2019-05-09T08:48:28.665Z,11.90
2019-05-09T08:51:00.829Z,11.90
2019-05-09T08:53:32.105Z,11.90
2019-05-09T08:56:02.310Z,11.90
2019-05-09T08:58:32.620Z,11.90
2019-05-09T09:01:04.475Z,11.90
2019-05-09T09:03:37.599Z,11.90
2019-05-09T09:06:08.288Z,11.90
2019-05-09T09:08:39.465Z,11.90
2019-05-09T09:11:10.732Z,11.90
2019-05-09T09:13:41.091Z,11.90
2019-05-09T09:16:18.548Z,11.90
2019-05-09T09:18:43.922Z,11.90
2019-05-09T09:21:14.123Z,11.90
2019-05-09T09:23:50.264Z,11.90
2019-05-09T09:26:18.438Z,11.90
2019-05-09T09:28:48.852Z,11.80
2019-05-09T09:31:19.208Z,11.90
2019-05-09T09:33:50.516Z,11.80
2019-05-09T09:36:20.837Z,11.90
2019-05-09T09:38:51.147Z,11.90
2019-05-09T09:41:21.846Z,11.90
2019-05-09T09:43:52.177Z,12.00
2019-05-09T09:46:22.454Z,12.00
2019-05-09T09:48:52.781Z,12.10
2019-05-09T09:51:23.473Z,12.10
2019-05-09T09:53:58.338Z,12.20
2019-05-09T09:56:28.758Z,12.20
2019-05-09T09:59:19.102Z,12.30
2019-05-09T10:01:59.940Z,12.30
2019-05-09T10:04:30.285Z,12.40
2019-05-09T10:07:00.760Z,12.40
2019-05-09T10:09:31.000Z,12.50
2019-05-09T10:12:02.043Z,12.50
2019-05-09T10:14:39.738Z,12.60
2019-05-09T10:17:14.798Z,12.60
2019-05-09T10:19:48.179Z,12.60
2019-05-09T10:22:23.890Z,12.70
2019-05-09T10:24:51.674Z,12.70
2019-05-09T10:27:22.159Z,12.80
2019-05-09T10:29:52.775Z,12.80
2019-05-09T10:32:23.110Z,12.90
2019-05-09T10:34:53.413Z,13.00
2019-05-09T10:37:24.463Z,13.10
2019-05-09T10:39:54.887Z,13.20
2019-05-09T10:42:29.580Z,13.20
2019-05-09T10:45:13.739Z,13.30
2019-05-09T10:47:44.000Z,13.40
2019-05-09T10:50:14.787Z,13.50
2019-05-09T10:52:45.029Z,13.60
2019-05-09T10:55:17.925Z,13.70
2019-05-09T10:57:52.074Z,13.90
2019-05-09T11:00:21.645Z,14.10
2019-05-09T11:02:51.835Z,14.20
2019-05-09T11:05:22.141Z,14.40
2019-05-09T11:07:52.395Z,14.50
2019-05-09T11:10:28.406Z,14.60
2019-05-09T11:12:54.473Z,14.60
2019-05-09T11:15:25.429Z,14.70
2019-05-09T11:17:57.529Z,14.70
2019-05-09T11:20:30.972Z,14.70
2019-05-09T11:23:01.316Z,14.80
2019-05-09T11:25:31.621Z,14.80
2019-05-09T11:28:11.091Z,14.90
2019-05-09T11:30:34.007Z,14.90
2019-05-09T11:33:04.544Z,15.00
2019-05-09T11:35:34.793Z,15.10
2019-05-09T11:38:05.056Z,15.20
2019-05-09T11:40:37.653Z,15.20
2019-05-09T11:43:07.429Z,15.30
2019-05-09T11:45:38.857Z,15.40
2019-05-09T11:48:12.272Z,15.40
2019-05-09T11:50:42.509Z,15.50
2019-05-09T11:53:12.799Z,15.50
2019-05-09T11:55:43.743Z,15.40
2019-05-09T11:58:13.960Z,15.30
2019-05-09T12:00:45.017Z,15.20
2019-05-09T12:03:15.252Z,15.20
2019-05-09T12:05:47.608Z,15.10
2019-05-09T12:08:17.828Z,15.00
2019-05-09T12:10:48.229Z,14.90
2019-05-09T12:13:18.716Z,14.80
2019-05-09T12:15:50.165Z,14.80
2019-05-09T12:18:20.836Z,14.80
2019-05-09T12:20:51.127Z,14.70
2019-05-09T12:23:21.815Z,14.70
2019-05-09T12:25:52.121Z,14.80
2019-05-09T12:28:22.403Z,14.70
2019-05-09T12:30:52.703Z,14.70
2019-05-09T12:33:22.987Z,14.70
2019-05-09T12:35:53.392Z,14.80
2019-05-09T12:38:23.597Z,14.80
2019-05-09T12:40:53.976Z,14.90
2019-05-09T12:43:24.257Z,14.90
2019-05-09T12:45:54.836Z,14.90
2019-05-09T12:48:27.673Z,15.00
2019-05-09T12:50:58.571Z,15.00
2019-05-09T12:53:28.948Z,15.10
2019-05-09T12:56:02.680Z,15.20
2019-05-09T12:58:33.940Z,15.20
2019-05-09T13:01:07.316Z,15.30
2019-05-09T13:03:38.226Z,15.30
2019-05-09T13:06:08.966Z,15.40
2019-05-09T13:08:39.234Z,15.50
2019-05-09T13:11:09.598Z,15.60
2019-05-09T13:13:41.193Z,15.70
2019-05-09T13:16:17.723Z,15.70
2019-05-09T13:19:02.998Z,15.70
2019-05-09T13:21:33.530Z,15.80
2019-05-09T13:24:03.773Z,15.70
2019-05-09T13:26:34.072Z,15.70
2019-05-09T13:29:04.298Z,15.70
2019-05-09T13:31:34.987Z,15.60
2019-05-09T13:34:07.951Z,15.60
2019-05-09T13:36:38.566Z,15.60
2019-05-09T13:39:10.783Z,15.50
2019-05-09T13:41:42.411Z,15.50
2019-05-09T13:44:14.053Z,15.40
2019-05-09T13:46:44.511Z,15.40
2019-05-09T13:49:15.697Z,15.50
2019-05-09T13:51:55.186Z,15.50
2019-05-09T13:54:20.206Z,15.50
2019-05-09T13:56:57.240Z,15.40
2019-05-09T13:59:22.408Z,15.50
2019-05-09T14:01:52.750Z,15.40
2019-05-09T14:04:23.634Z,15.40
2019-05-09T14:06:53.847Z,15.40
2019-05-09T14:09:24.047Z,15.30
2019-05-09T14:11:54.469Z,15.30
2019-05-09T14:14:24.763Z,15.20
2019-05-09T14:16:55.025Z,15.20
2019-05-09T14:19:36.200Z,15.10
2019-05-09T14:21:58.589Z,15.20
2019-05-09T14:24:29.141Z,15.10
2019-05-09T14:26:59.327Z,15.10
2019-05-09T14:29:32.664Z,15.00
2019-05-09T14:32:05.103Z,14.90
2019-05-09T14:34:37.639Z,14.90
2019-05-09T14:37:09.576Z,14.80
2019-05-09T14:39:54.477Z,14.80
2019-05-09T14:42:10.888Z,14.70
2019-05-09T14:44:41.129Z,14.70
2019-05-09T14:47:11.810Z,14.60
2019-05-09T14:49:44.623Z,14.60
2019-05-09T14:52:14.729Z,14.50
2019-05-09T14:54:44.981Z,14.50
2019-05-09T14:57:17.535Z,14.50
2019-05-09T14:59:47.464Z,14.40
2019-05-09T15:02:18.099Z,14.40
2019-05-09T15:04:48.673Z,14.40
2019-05-09T15:07:25.425Z,14.30
2019-05-09T15:09:56.855Z,14.30
2019-05-09T15:12:28.525Z,14.30
2019-05-09T15:15:07.606Z,14.20
2019-05-09T15:17:38.155Z,14.20
2019-05-09T15:20:10.189Z,14.20
2019-05-09T15:22:41.179Z,14.10
2019-05-09T15:25:12.037Z,14.10
2019-05-09T15:27:44.220Z,14.10
2019-05-09T15:30:14.759Z,14.10
2019-05-09T15:32:46.897Z,14.10
2019-05-09T15:35:18.300Z,14.00
2019-05-09T15:37:48.730Z,14.00
2019-05-09T15:40:19.445Z,14.10
2019-05-09T15:42:50.624Z,14.10
2019-05-09T15:45:21.144Z,14.10
2019-05-09T15:47:51.436Z,14.20
2019-05-09T15:50:23.349Z,14.30
2019-05-09T15:52:53.803Z,14.40
2019-05-09T15:55:24.030Z,14.50
2019-05-09T15:57:54.238Z,14.70
2019-05-09T16:00:28.195Z,14.80
2019-05-09T16:02:59.121Z,14.90
2019-05-09T16:05:31.759Z,15.00
2019-05-09T16:08:01.480Z,15.10
2019-05-09T16:10:31.954Z,15.20
2019-05-09T16:13:02.296Z,15.30
2019-05-09T16:15:32.516Z,15.40
2019-05-09T16:18:02.719Z,15.50
2019-05-09T16:20:37.464Z,15.60
2019-05-09T16:23:08.185Z,15.60
2019-05-09T16:25:38.705Z,15.60
2019-05-09T16:28:09.560Z,15.70
2019-05-09T16:30:39.849Z,15.60
2019-05-09T16:33:10.049Z,15.60
2019-05-09T16:35:41.462Z,15.50
2019-05-09T16:38:11.795Z,15.50
2019-05-09T16:40:42.187Z,15.40
2019-05-09T16:43:12.495Z,15.40
2019-05-09T16:45:42.802Z,15.30
2019-05-09T16:48:13.896Z,15.20
2019-05-09T16:50:57.694Z,15.10
2019-05-09T16:53:18.574Z,15.10
2019-05-09T16:55:48.813Z,15.00
2019-05-09T16:58:19.091Z,14.90
2019-05-09T17:00:52.926Z,14.90
2019-05-09T17:03:23.151Z,14.80
2019-05-09T17:05:53.460Z,14.70
2019-05-09T17:08:23.748Z,14.70
2019-05-09T17:10:54.184Z,14.70
2019-05-09T17:13:24.839Z,14.60
2019-05-09T17:15:55.213Z,14.60
2019-05-09T17:18:28.109Z,14.60
2019-05-09T17:21:15.113Z,14.60
2019-05-09T17:23:35.214Z,14.70
2019-05-09T17:26:05.525Z,14.80
2019-05-09T17:28:37.644Z,14.90
2019-05-09T17:31:08.599Z,15.00
2019-05-09T17:33:39.180Z,15.10
2019-05-09T17:36:09.448Z,15.20
2019-05-09T17:38:39.747Z,15.20
2019-05-09T17:41:10.178Z,15.20
2019-05-09T17:43:40.660Z,15.30
2019-05-09T17:46:11.034Z,15.70
2019-05-09T17:48:41.316Z,16.20
2019-05-09T17:51:11.708Z,16.70
2019-05-09T17:53:42.029Z,17.10
2019-05-09T17:56:12.378Z,17.30
2019-05-09T17:58:42.668Z,17.30
2019-05-09T18:01:13.020Z,17.30
2019-05-09T18:03:44.302Z,17.20
2019-05-09T18:06:14.614Z,17.00
2019-05-09T18:08:44.868Z,16.80
2019-05-09T18:11:17.287Z,16.60
2019-05-09T18:13:48.116Z,16.30
2019-05-09T18:16:19.714Z,16.00
2019-05-09T18:18:51.389Z,15.60
2019-05-09T18:21:21.706Z,15.40
2019-05-09T18:23:51.982Z,15.10
2019-05-09T18:26:22.279Z,14.90
2019-05-09T18:28:52.507Z,14.70
2019-05-09T18:31:24.389Z,14.50
2019-05-09T18:33:58.113Z,14.40
2019-05-09T18:36:28.258Z,14.20
2019-05-09T18:38:58.660Z,14.10
2019-05-09T18:41:29.056Z,14.00
2019-05-09T18:43:59.344Z,13.90
2019-05-09T18:46:29.652Z,13.80
2019-05-09T18:49:01.016Z,13.70
2019-05-09T18:51:31.326Z,13.60
2019-05-09T18:54:01.614Z,13.50
2019-05-09T18:56:31.988Z,13.40
2019-05-09T18:59:02.270Z,13.30
2019-05-09T19:01:32.584Z,13.20
2019-05-09T19:04:03.343Z,13.20
2019-05-09T19:06:33.805Z,13.10
2019-05-09T19:09:05.567Z,13.10
2019-05-09T19:11:35.948Z,13.10
2019-05-09T19:14:07.411Z,13.00
2019-05-09T19:16:42.067Z,12.90
2019-05-09T19:19:16.822Z,12.90
2019-05-09T19:21:51.269Z,12.80
2019-05-09T19:24:31.931Z,12.70
2019-05-09T19:27:02.271Z,12.60
2019-05-09T19:29:32.573Z,12.50
2019-05-09T19:32:02.941Z,12.50
2019-05-09T19:34:33.237Z,12.40
2019-05-09T19:37:03.622Z,12.30
2019-05-09T19:39:33.815Z,12.20
2019-05-09T19:42:04.146Z,12.20
2019-05-09T19:44:35.407Z,12.10
2019-05-09T19:47:05.791Z,12.10
2019-05-09T19:49:36.036Z,12.00
2019-05-09T19:52:06.313Z,12.00
2019-05-09T19:54:37.487Z,11.90
2019-05-09T19:57:07.853Z,11.90
2019-05-09T19:59:38.159Z,11.80
2019-05-09T20:02:08.399Z,11.80
2019-05-09T20:04:38.907Z,11.70
2019-05-09T20:07:09.179Z,11.70
2019-05-09T20:09:50.387Z,11.70
2019-05-09T20:12:22.205Z,11.70
2019-05-09T20:14:54.722Z,11.60
2019-05-09T20:17:25.049Z,11.60
2019-05-09T20:19:55.413Z,11.60
2019-05-09T20:22:25.649Z,11.50
2019-05-09T20:24:55.990Z,11.50
2019-05-09T20:27:26.280Z,11.50
2019-05-09T20:29:56.627Z,11.50
2019-05-09T20:32:26.879Z,11.40
2019-05-09T20:34:57.347Z,11.40
2019-05-09T20:37:27.855Z,11.40
2019-05-09T20:39:58.342Z,11.30
2019-05-09T20:42:28.876Z,11.30
2019-05-09T20:44:59.304Z,11.30
2019-05-09T20:47:29.736Z,11.30
2019-05-09T20:50:00.281Z,11.20
2019-05-09T20:52:30.741Z,11.20
2019-05-09T20:55:01.283Z,11.20
2019-05-09T20:57:32.783Z,11.20
2019-05-09T21:00:03.828Z,11.10
2019-05-09T21:02:35.491Z,11.10
2019-05-09T21:05:07.040Z,11.10
2019-05-09T21:07:37.494Z,11.10
2019-05-09T21:10:07.968Z,11.00
2019-05-09T21:12:38.427Z,11.00
2019-05-09T21:15:09.515Z,11.00
2019-05-09T21:17:39.983Z,10.90
2019-05-09T21:20:10.629Z,10.90
2019-05-09T21:22:41.117Z,10.90
2019-05-09T21:25:11.634Z,10.80
2019-05-09T21:27:42.117Z,10.80
2019-05-09T21:30:12.794Z,10.80
2019-05-09T21:32:43.260Z,10.80
2019-05-09T21:35:13.755Z,10.70
2019-05-09T21:37:44.032Z,10.70
2019-05-09T21:40:14.517Z,10.70
2019-05-09T21:42:44.785Z,10.60
2019-05-09T21:45:15.438Z,10.60
2019-05-09T21:47:45.719Z,10.60
2019-05-09T21:50:16.227Z,10.60
2019-05-09T21:52:46.527Z,10.50
2019-05-09T21:55:16.873Z,10.50
2019-05-09T21:57:47.801Z,10.50
2019-05-09T22:00:22.296Z,10.50
2019-05-09T22:02:54.075Z,10.40
2019-05-09T22:05:24.945Z,10.40
2019-05-09T22:07:55.618Z,10.40
2019-05-09T22:10:25.914Z,10.40
2019-05-09T22:12:56.205Z,10.40
2019-05-09T22:15:27.471Z,10.30
2019-05-09T22:17:57.725Z,10.30
2019-05-09T22:20:28.080Z,10.30
2019-05-09T22:22:58.362Z,10.30
2019-05-09T22:25:28.700Z,10.30
2019-05-09T22:28:00.471Z,10.30
2019-05-09T22:30:30.825Z,10.20
2019-05-09T22:33:01.097Z,10.20
2019-05-09T22:35:31.449Z,10.20
2019-05-09T22:38:01.835Z,10.20
2019-05-09T22:40:32.181Z,10.20
2019-05-09T22:43:02.458Z,10.10
2019-05-09T22:45:32.823Z,10.10
2019-05-09T22:48:04.540Z,10.10
2019-05-09T22:50:34.873Z,10.10
2019-05-09T22:53:05.144Z,10.10
2019-05-09T22:55:35.499Z,10.10
2019-05-09T22:58:05.962Z,10.10
2019-05-09T23:00:36.280Z,10.00
2019-05-09T23:03:06.558Z,10.00
2019-05-09T23:05:36.924Z,10.00
2019-05-09T23:08:07.710Z,9.90
2019-05-09T23:10:38.008Z,9.90
2019-05-09T23:13:09.281Z,9.90
2019-05-09T23:15:40.588Z,9.90
2019-05-09T23:18:10.869Z,9.90
2019-05-09T23:20:42.800Z,9.90
2019-05-09T23:23:31.180Z,9.90
2019-05-09T23:26:01.524Z,9.90
2019-05-09T23:28:32.793Z,9.90
2019-05-09T23:31:04.743Z,9.90
2019-05-09T23:33:36.575Z,9.80
2019-05-09T23:36:06.918Z,9.80
2019-05-09T23:38:38.759Z,9.80
2019-05-09T23:41:09.243Z,9.80
2019-05-09T23:43:39.507Z,9.80
2019-05-09T23:46:09.851Z,9.80
2019-05-09T23:48:40.140Z,9.80
2019-05-09T23:51:10.481Z,9.80
2019-05-09T23:53:41.040Z,9.70
2019-05-09T23:56:29.328Z,9.70
2019-05-09T23:59:17.547Z,9.70
